This is the latest recevied weather packets stored in our database for station/object DL1YAU. If no packets are shown the sender has not sent any weather packets the latest 10 day(s).
| Time | Temp. | Humidity | Pressure | Rain* | Wind** | Luminosity | Snow |
|---|---|---|---|---|---|---|---|
| 1778026454 | 10° C | 91% | - | 1.78 mm | - | 0 W/m² | - |
| 1778006652 | 11.67° C | 89% | - | 0 mm | - | 0 W/m² | - |
| 1778000651 | 12.78° C | 89% | - | 0 mm | - | 32 W/m² | - |
| 1777993454 | 13.89° C | 85% | - | 0.51 mm | - | 86 W/m² | - |
| 1777992854 | 14.44° C | 84% | - | 0.25 mm | - | 114 W/m² | - |
| 1777990454 | 15.56° C | 82% | - | 0 mm | - | 53 W/m² | - |
| 1777989254 | 15.56° C | 82% | - | 0 mm | - | 171 W/m² | - |
| 1777985653 | 15° C | 85% | - | 0 mm | - | 260 W/m² | - |
| 1777970051 | 13.33° C | 92% | - | 0 mm | - | 265 W/m² | - |
| 1777964651 | 12.22° C | 92% | - | 0 mm | - | 109 W/m² | - |
| 1777963451 | 12.22° C | 92% | - | 0 mm | - | 104 W/m² | - |
| 1777961650 | 11.67° C | 92% | - | 0 mm | - | 70 W/m² | - |
| 1777956850 | 11.11° C | 92% | - | 0 mm | - | 12 W/m² | - |
| 1777955050 | 11.11° C | 91% | - | 0 mm | - | 11 W/m² | - |
| 1777940053 | 11.67° C | 91% | - | 0 mm | - | 0 W/m² | - |
| 1777934052 | 11.67° C | 91% | - | 0 mm | - | 0 W/m² | - |
| 1777932852 | 11.67° C | 91% | - | 0 mm | - | 0 W/m² | - |
| 1777927451 | 12.22° C | 90% | - | 0.51 mm | - | 0 W/m² | - |
| 1777925051 | 12.22° C | 90% | - | 3.05 mm | - | 0 W/m² | - |
| 1777922051 | 12.22° C | 89% | - | 6.1 mm | - | 0 W/m² | - |
| 1777919050 | 12.78° C | 88% | - | 2.54 mm | - | 0 W/m² | - |
| 1777910054 | 16.67° C | 70% | - | 0 mm | - | 84 W/m² | - |
| 1777903453 | 22.78° C | 49% | - | 0 mm | - | 341 W/m² | - |
| 1777901053 | 23.33° C | 48% | - | 0 mm | - | 207 W/m² | - |
| 1777887852 | 20° C | 58% | - | 0 mm | - | 288 W/m² | - |
* Rain latest hour (hover to see other rain measurements)
** Current wind speed in m/s (hover to see current wind gust speed)